createdAt,value
2023-05-04T00:01:05.705Z,5.88
2023-05-04T00:03:39.563Z,6.15
2023-05-04T00:06:31.956Z,6.13
2023-05-04T00:09:01.388Z,5.18
2023-05-04T00:11:34.036Z,5.72
2023-05-04T00:14:07.940Z,5.43
2023-05-04T00:16:39.976Z,5.80
2023-05-04T00:19:12.451Z,4.78
2023-05-04T00:21:44.325Z,5.88
2023-05-04T00:24:20.210Z,5.55
2023-05-04T00:26:49.978Z,6.15
2023-05-04T00:29:24.942Z,5.25
2023-05-04T00:32:00.430Z,5.00
2023-05-04T00:34:35.089Z,5.07
2023-05-04T00:37:07.194Z,4.72
2023-05-04T00:39:39.102Z,5.10
2023-05-04T00:42:11.118Z,5.53
2023-05-04T00:44:45.256Z,4.63
2023-05-04T00:47:20.311Z,4.80
2023-05-04T00:49:53.904Z,5.03
2023-05-04T00:52:25.855Z,5.65
2023-05-04T00:54:56.891Z,5.35
2023-05-04T00:57:28.588Z,4.85
2023-05-04T00:59:59.091Z,5.00
2023-05-04T01:02:28.886Z,4.97
2023-05-04T01:04:58.278Z,4.55
2023-05-04T01:07:35.907Z,5.55
2023-05-04T01:10:13.382Z,5.40
2023-05-04T01:12:56.935Z,5.38
2023-05-04T01:15:27.953Z,5.00
2023-05-04T01:18:02.990Z,5.18
2023-05-04T01:20:35.438Z,5.28
2023-05-04T01:23:04.970Z,4.90
2023-05-04T01:25:48.465Z,5.28
2023-05-04T01:28:37.719Z,4.93
2023-05-04T01:31:17.895Z,5.15
2023-05-04T01:33:53.745Z,5.03
2023-05-04T01:36:26.964Z,4.35
2023-05-04T01:39:04.080Z,4.57
2023-05-04T01:41:38.439Z,5.68
2023-05-04T01:44:11.107Z,5.00
2023-05-04T01:51:45.653Z,5.10
2023-05-04T01:54:15.487Z,5.22
2023-05-04T01:56:52.937Z,5.55
2023-05-04T01:59:22.206Z,5.68
2023-05-04T02:01:56.511Z,4.57
2023-05-04T02:04:29.144Z,4.15
2023-05-04T02:07:05.490Z,4.15
2023-05-04T02:09:35.815Z,4.40
2023-05-04T02:12:05.588Z,4.70
2023-05-04T02:14:35.216Z,4.57
2023-05-04T02:17:08.116Z,3.92
2023-05-04T02:19:47.963Z,3.97
2023-05-04T02:22:21.033Z,4.60
2023-05-04T02:24:57.263Z,5.15
2023-05-04T02:27:26.898Z,5.05
2023-05-04T02:30:05.266Z,4.60
2023-05-04T02:32:35.085Z,4.47
2023-05-04T02:35:07.269Z,5.18
2023-05-04T02:37:39.170Z,4.47
2023-05-04T02:40:13.359Z,4.20
2023-05-04T02:42:43.064Z,5.32
2023-05-04T02:45:17.269Z,5.20
2023-05-04T02:47:46.794Z,4.93
2023-05-04T02:50:19.440Z,4.50
2023-05-04T02:52:51.028Z,4.28
2023-05-04T02:55:22.954Z,4.57
2023-05-04T02:57:58.065Z,4.97
2023-05-04T03:00:34.844Z,4.68
2023-05-04T03:03:04.485Z,4.72
2023-05-04T03:05:41.844Z,4.18
2023-05-04T03:08:15.503Z,4.30
2023-05-04T03:10:49.753Z,4.63
2023-05-04T03:13:19.254Z,4.28
2023-05-04T03:15:49.090Z,4.95
2023-05-04T03:18:26.517Z,5.50
2023-05-04T03:20:59.049Z,4.13
2023-05-04T03:23:30.857Z,4.40
2023-05-04T03:26:08.202Z,4.90
2023-05-04T03:28:38.593Z,4.75
2023-05-04T03:31:08.734Z,4.80
2023-05-04T03:33:42.843Z,4.90
2023-05-04T03:36:12.606Z,4.82
2023-05-04T03:38:46.235Z,4.53
2023-05-04T03:41:16.055Z,4.65
2023-05-04T03:43:48.764Z,4.90
2023-05-04T03:46:22.285Z,5.45
2023-05-04T03:48:54.619Z,5.75
2023-05-04T03:51:29.652Z,5.70
2023-05-04T03:53:59.395Z,5.30
2023-05-04T03:56:31.741Z,5.03
2023-05-04T03:59:02.313Z,5.75
2023-05-04T04:01:36.056Z,4.97
2023-05-04T04:04:08.512Z,5.47
2023-05-04T04:06:48.073Z,4.97
2023-05-04T04:09:18.662Z,5.43
2023-05-04T04:11:49.082Z,5.07
2023-05-04T04:14:24.551Z,4.35
2023-05-04T04:16:58.068Z,4.88
2023-05-04T04:19:30.741Z,5.60
2023-05-04T04:24:30.534Z,4.75
2023-05-04T04:27:00.624Z,5.05
2023-05-04T04:29:31.305Z,5.45
2023-05-04T04:32:05.069Z,5.20
2023-05-04T04:34:40.476Z,5.25
2023-05-04T04:37:12.122Z,5.00
2023-05-04T04:39:49.983Z,5.28
2023-05-04T04:42:23.024Z,4.95
2023-05-04T04:44:53.130Z,5.50
2023-05-04T04:47:26.128Z,4.63
2023-05-04T04:49:58.056Z,5.32
2023-05-04T04:52:31.192Z,5.40
2023-05-04T04:55:09.582Z,4.93
2023-05-04T04:57:39.246Z,3.83
2023-05-04T05:00:12.218Z,4.28
2023-05-04T05:02:44.470Z,4.10
2023-05-04T05:05:16.650Z,5.13
2023-05-04T05:07:52.930Z,4.30
2023-05-04T05:10:23.434Z,3.80
2023-05-04T05:12:53.449Z,3.80
2023-05-04T05:15:29.397Z,4.13
2023-05-04T05:18:01.577Z,3.22
2023-05-04T05:20:31.385Z,3.45
2023-05-04T05:23:05.854Z,3.17
2023-05-04T05:25:39.229Z,3.53
2023-05-04T05:28:11.739Z,3.20
2023-05-04T05:30:50.108Z,3.55
2023-05-04T05:33:22.251Z,2.85
2023-05-04T05:35:57.862Z,2.78
2023-05-04T05:38:29.789Z,2.70
2023-05-04T05:41:01.708Z,2.72
2023-05-04T05:43:31.374Z,2.55
2023-05-04T05:46:03.777Z,2.30
2023-05-04T05:48:33.626Z,2.50
2023-05-04T05:51:10.387Z,2.22
2023-05-04T05:53:45.602Z,2.38
2023-05-04T05:56:19.861Z,3.22
2023-05-04T05:58:56.452Z,2.63
2023-05-04T06:01:31.752Z,2.67
2023-05-04T06:04:03.553Z,2.60
2023-05-04T06:06:33.119Z,2.83
2023-05-04T06:09:07.202Z,2.92
2023-05-04T06:11:39.665Z,2.63
2023-05-04T06:14:09.377Z,2.95
2023-05-04T06:16:41.933Z,2.65
2023-05-04T06:19:16.227Z,2.83
2023-05-04T06:21:49.093Z,2.40
2023-05-04T06:24:18.700Z,2.63
2023-05-04T06:26:55.593Z,2.75
2023-05-04T06:29:26.027Z,3.22
2023-05-04T06:31:57.453Z,2.70
2023-05-04T06:34:26.966Z,2.80
2023-05-04T06:36:59.977Z,2.92
2023-05-04T06:42:02.141Z,3.08
2023-05-04T06:44:38.555Z,3.20
2023-05-04T06:47:13.184Z,3.15
2023-05-04T06:49:42.826Z,3.25
2023-05-04T06:52:12.852Z,4.03
2023-05-04T06:54:51.939Z,3.22
2023-05-04T06:57:23.030Z,3.60
2023-05-04T06:59:54.245Z,3.58
2023-05-04T07:02:28.967Z,3.60
2023-05-04T07:04:59.154Z,4.00
2023-05-04T07:07:36.699Z,3.55
2023-05-04T07:10:07.001Z,3.25
2023-05-04T07:12:42.977Z,3.78
2023-05-04T07:15:20.786Z,3.15
2023-05-04T07:17:56.335Z,2.72
2023-05-04T07:20:29.233Z,3.03
2023-05-04T07:22:59.825Z,2.78
2023-05-04T07:25:32.721Z,3.55
2023-05-04T07:28:04.595Z,3.75
2023-05-04T07:30:34.226Z,3.92
2023-05-04T07:33:06.824Z,3.40
2023-05-04T07:35:36.251Z,3.47
2023-05-04T07:38:11.279Z,3.85
2023-05-04T07:40:46.218Z,3.45
2023-05-04T07:43:20.456Z,3.13
2023-05-04T07:45:50.960Z,2.53
2023-05-04T07:48:26.181Z,2.95
2023-05-04T07:51:06.046Z,2.83
2023-05-04T07:53:35.665Z,2.38
2023-05-04T07:56:12.250Z,2.65
2023-05-04T07:58:44.523Z,2.53
2023-05-04T08:01:19.121Z,2.80
2023-05-04T08:03:52.419Z,2.30
2023-05-04T08:06:27.402Z,2.55
2023-05-04T08:09:03.009Z,2.55
2023-05-04T08:11:38.328Z,2.63
2023-05-04T08:14:10.408Z,2.10
2023-05-04T08:16:43.082Z,2.40
2023-05-04T08:21:45.519Z,2.00
2023-05-04T08:24:15.469Z,2.05
2023-05-04T08:27:03.769Z,2.17
2023-05-04T08:29:38.503Z,2.83
2023-05-04T08:32:18.411Z,3.20
2023-05-04T08:34:54.067Z,2.97
2023-05-04T08:37:25.901Z,3.17
2023-05-04T08:40:01.020Z,2.70
2023-05-04T08:42:33.913Z,2.38
2023-05-04T08:45:07.790Z,2.30
2023-05-04T08:47:44.053Z,2.80
2023-05-04T08:50:15.757Z,2.60
2023-05-04T08:52:48.163Z,3.30
2023-05-04T08:55:21.045Z,2.60
2023-05-04T08:57:54.626Z,2.45
2023-05-04T09:00:27.867Z,2.40
2023-05-04T09:03:00.810Z,2.40
2023-05-04T09:05:36.894Z,2.42
2023-05-04T09:08:08.745Z,2.35
2023-05-04T09:10:39.376Z,2.70
2023-05-04T09:13:18.676Z,2.58
2023-05-04T09:16:04.530Z,2.63
2023-05-04T09:18:41.604Z,2.35
2023-05-04T09:21:29.000Z,3.20
2023-05-04T09:24:03.769Z,2.53
2023-05-04T09:26:39.811Z,3.10
2023-05-04T09:29:17.586Z,2.75
2023-05-04T09:31:53.490Z,2.88
2023-05-04T09:34:27.070Z,3.20
2023-05-04T09:37:03.422Z,3.30
2023-05-04T09:39:38.271Z,3.03
2023-05-04T09:42:19.542Z,3.65
2023-05-04T09:45:06.429Z,3.33
2023-05-04T09:47:45.225Z,3.30
2023-05-04T09:50:25.779Z,3.05
2023-05-04T09:52:56.796Z,3.22
2023-05-04T09:55:33.160Z,3.25
2023-05-04T09:58:06.433Z,3.08
2023-05-04T10:00:48.918Z,2.75
2023-05-04T10:03:27.364Z,2.95
2023-05-04T10:06:01.629Z,2.92
2023-05-04T10:08:36.750Z,2.63
2023-05-04T10:13:43.440Z,2.50
2023-05-04T10:16:44.053Z,2.97
2023-05-04T10:19:35.175Z,2.95
2023-05-04T10:22:31.589Z,2.67
2023-05-04T10:25:07.925Z,2.30
2023-05-04T10:27:58.637Z,2.80
2023-05-04T10:30:28.959Z,2.40
2023-05-04T10:32:59.831Z,2.28
2023-05-04T10:35:34.533Z,2.50
2023-05-04T10:38:04.877Z,2.40
2023-05-04T10:40:43.023Z,2.60
2023-05-04T10:43:24.666Z,2.63
2023-05-04T10:45:58.033Z,2.88
2023-05-04T10:48:37.103Z,2.60
2023-05-04T10:51:23.621Z,2.42
2023-05-04T10:54:04.060Z,2.30
2023-05-04T10:56:34.084Z,2.03
2023-05-04T10:59:18.089Z,2.50
2023-05-04T11:01:51.313Z,2.03
2023-05-04T11:04:27.061Z,2.10
2023-05-04T11:07:09.183Z,2.40
2023-05-04T11:09:44.783Z,2.38
2023-05-04T11:12:20.218Z,2.50
2023-05-04T11:14:52.679Z,2.58
2023-05-04T11:17:28.217Z,2.78
2023-05-04T11:19:58.830Z,2.40
2023-05-04T11:22:32.672Z,2.10
2023-05-04T11:25:09.088Z,2.13
2023-05-04T11:27:44.864Z,2.00
2023-05-04T11:30:15.084Z,2.22
2023-05-04T11:32:47.944Z,2.00
2023-05-04T11:37:51.564Z,1.52
2023-05-04T11:42:58.215Z,2.03
2023-05-04T11:45:38.849Z,1.55
2023-05-04T11:48:17.987Z,2.05
2023-05-04T11:50:48.583Z,1.60
2023-05-04T11:53:22.013Z,1.45
2023-05-04T11:55:54.920Z,1.45
2023-05-04T11:58:27.156Z,1.60
2023-05-04T12:00:57.746Z,1.80
2023-05-04T12:03:36.024Z,1.30
2023-05-04T12:06:18.539Z,1.58
2023-05-04T12:09:08.217Z,1.35
2023-05-04T12:11:41.592Z,1.55
2023-05-04T12:14:32.081Z,1.73
2023-05-04T12:17:04.038Z,1.80
2023-05-04T12:19:37.100Z,1.90
2023-05-04T12:22:07.260Z,1.67
2023-05-04T12:24:37.601Z,1.38
2023-05-04T12:27:14.902Z,1.40
2023-05-04T12:29:52.404Z,1.42
2023-05-04T12:32:29.918Z,1.40
2023-05-04T12:35:05.772Z,1.90
2023-05-04T12:37:41.509Z,1.67
2023-05-04T12:40:28.299Z,1.73
2023-05-04T12:43:00.046Z,1.50
2023-05-04T12:45:31.109Z,1.30
2023-05-04T12:48:04.467Z,1.40
2023-05-04T12:50:35.569Z,1.17
2023-05-04T12:53:08.467Z,1.67
2023-05-04T12:55:45.481Z,1.38
2023-05-04T13:00:58.376Z,1.05
2023-05-04T13:03:34.492Z,1.20
2023-05-04T13:06:12.621Z,0.98
2023-05-04T13:08:53.181Z,0.95
2023-05-04T13:11:22.756Z,1.10
2023-05-04T13:13:55.840Z,1.23
2023-05-04T13:16:27.384Z,1.20
2023-05-04T13:18:59.763Z,1.10
2023-05-04T13:21:29.491Z,1.15
2023-05-04T13:24:02.894Z,1.00
2023-05-04T13:26:34.982Z,1.15
2023-05-04T13:29:05.979Z,0.90
2023-05-04T13:31:38.247Z,1.17
2023-05-04T13:34:22.630Z,1.42
2023-05-04T13:36:55.377Z,1.20
2023-05-04T13:39:29.177Z,1.17
2023-05-04T13:41:59.111Z,1.10
2023-05-04T13:44:35.324Z,1.40
2023-05-04T13:47:09.521Z,1.63
2023-05-04T13:49:39.948Z,1.60
2023-05-04T13:52:11.986Z,1.40
2023-05-04T13:54:42.775Z,1.60
2023-05-04T13:57:12.643Z,1.75
2023-05-04T13:59:54.898Z,1.52
2023-05-04T14:02:46.015Z,1.90
2023-05-04T14:05:23.934Z,1.30
2023-05-04T14:07:55.740Z,1.30
2023-05-04T14:10:28.578Z,1.70
2023-05-04T14:12:58.760Z,1.80
2023-05-04T14:15:32.582Z,2.40
2023-05-04T14:18:08.304Z,1.90
2023-05-04T14:20:41.909Z,2.00
2023-05-04T14:23:14.120Z,1.40
2023-05-04T14:25:50.729Z,1.80
2023-05-04T14:28:22.157Z,1.67
2023-05-04T14:30:56.713Z,1.80
2023-05-04T14:33:29.529Z,1.70
2023-05-04T14:36:08.755Z,3.63
2023-05-04T14:38:38.440Z,2.72
2023-05-04T14:41:10.641Z,2.00
2023-05-04T14:43:53.103Z,1.70
2023-05-04T14:46:28.250Z,1.90
2023-05-04T14:49:04.214Z,1.95
2023-05-04T14:51:36.000Z,2.15
2023-05-04T14:54:15.092Z,1.98
2023-05-04T14:56:51.257Z,1.60
2023-05-04T14:59:24.169Z,2.08
2023-05-04T15:01:55.776Z,2.08
2023-05-04T15:04:31.610Z,1.90
2023-05-04T15:07:01.579Z,1.52
2023-05-04T15:09:34.389Z,1.92
2023-05-04T15:12:13.068Z,2.22
2023-05-04T15:14:47.434Z,1.95
2023-05-04T15:17:20.162Z,1.83
2023-05-04T15:19:54.352Z,1.58
2023-05-04T15:22:24.027Z,1.90
2023-05-04T15:24:58.226Z,2.20
2023-05-04T15:27:31.649Z,2.67
2023-05-04T15:30:04.252Z,2.67
2023-05-04T15:32:38.172Z,2.13
2023-05-04T15:35:10.560Z,1.60
2023-05-04T15:37:40.550Z,1.88
2023-05-04T15:40:16.290Z,2.45
2023-05-04T15:42:58.940Z,2.13
2023-05-04T15:45:32.578Z,1.88
2023-05-04T15:48:02.337Z,1.65
2023-05-04T15:53:04.435Z,1.70
2023-05-04T15:55:39.108Z,1.65
2023-05-04T15:58:16.544Z,1.30
2023-05-04T16:00:46.574Z,1.60
2023-05-04T16:03:16.656Z,2.00
2023-05-04T16:05:51.261Z,1.80
2023-05-04T16:08:27.293Z,1.75
2023-05-04T16:10:59.500Z,1.85
2023-05-04T16:13:37.181Z,1.90
2023-05-04T16:16:07.756Z,2.00
2023-05-04T16:18:39.781Z,2.10
2023-05-04T16:21:14.620Z,2.00
2023-05-04T16:23:55.650Z,2.55
2023-05-04T16:26:32.599Z,3.40
2023-05-04T16:29:07.017Z,4.45
2023-05-04T16:31:37.799Z,2.63
2023-05-04T16:34:08.148Z,2.90
2023-05-04T16:36:40.700Z,2.22
2023-05-04T16:39:16.887Z,3.40
2023-05-04T16:41:49.104Z,2.70
2023-05-04T16:44:22.170Z,2.47
2023-05-04T16:46:54.962Z,2.30
2023-05-04T16:49:27.305Z,2.28
2023-05-04T16:51:59.313Z,2.22
2023-05-04T16:54:32.584Z,2.33
2023-05-04T16:57:05.468Z,2.70
2023-05-04T16:59:37.551Z,2.40
2023-05-04T17:02:12.345Z,2.08
2023-05-04T17:04:49.349Z,1.88
2023-05-04T17:07:19.601Z,3.10
2023-05-04T17:09:56.628Z,4.10
2023-05-04T17:12:31.671Z,7.65
2023-05-04T17:15:01.500Z,6.50
2023-05-04T17:17:34.108Z,2.55
2023-05-04T17:20:09.867Z,2.55
2023-05-04T17:22:43.791Z,2.53
2023-05-04T17:25:19.680Z,2.13
2023-05-04T17:27:54.428Z,2.55
2023-05-04T17:30:26.922Z,2.63
2023-05-04T17:33:00.252Z,2.92
2023-05-04T17:35:32.344Z,4.70
2023-05-04T17:38:04.422Z,5.95
2023-05-04T17:40:42.786Z,6.28
2023-05-04T17:43:18.357Z,9.85
2023-05-04T17:45:54.973Z,6.85
2023-05-04T17:48:32.247Z,4.90
2023-05-04T17:51:11.533Z,4.25
2023-05-04T17:53:44.408Z,3.33
2023-05-04T17:56:17.396Z,4.10
2023-05-04T17:58:48.104Z,4.78
2023-05-04T18:01:21.359Z,6.97
2023-05-04T18:04:04.599Z,11.02
2023-05-04T18:06:37.030Z,13.30
2023-05-04T18:09:07.574Z,8.35
2023-05-04T18:11:39.545Z,7.05
2023-05-04T18:14:12.459Z,6.35
2023-05-04T18:19:28.973Z,4.00
2023-05-04T18:22:02.876Z,4.10
2023-05-04T18:24:35.710Z,3.50
2023-05-04T18:29:37.497Z,2.85
2023-05-04T18:32:09.472Z,2.90
2023-05-04T18:34:52.196Z,3.22
2023-05-04T18:37:31.177Z,4.25
2023-05-04T18:40:02.614Z,4.05
2023-05-04T18:42:37.433Z,4.38
2023-05-04T18:45:12.800Z,4.07
2023-05-04T18:47:44.857Z,4.25
2023-05-04T18:50:15.232Z,4.57
2023-05-04T18:52:48.092Z,5.13
2023-05-04T18:55:24.021Z,3.85
2023-05-04T18:58:04.448Z,5.18
2023-05-04T19:00:39.603Z,5.72
2023-05-04T19:03:12.107Z,4.00
2023-05-04T19:05:41.767Z,4.28
2023-05-04T19:08:13.421Z,4.15
2023-05-04T19:10:47.470Z,3.17
2023-05-04T19:13:21.276Z,3.97
2023-05-04T19:15:54.274Z,4.05
2023-05-04T19:18:26.032Z,3.30
2023-05-04T19:20:57.909Z,2.65
2023-05-04T19:25:58.818Z,3.10
2023-05-04T19:28:28.487Z,3.03
2023-05-04T19:31:01.088Z,3.92
2023-05-04T19:33:44.580Z,2.90
2023-05-04T19:36:21.245Z,3.22
2023-05-04T19:38:51.597Z,3.38
2023-05-04T19:41:21.197Z,3.30
2023-05-04T19:43:58.679Z,4.07
2023-05-04T19:46:32.559Z,4.72
2023-05-04T19:49:02.046Z,5.32
2023-05-04T19:54:12.545Z,13.85
2023-05-04T19:56:50.493Z,4.97
2023-05-04T19:59:25.519Z,5.72
2023-05-04T20:01:58.713Z,6.40
2023-05-04T20:04:31.124Z,6.18
2023-05-04T20:07:00.922Z,6.50
2023-05-04T20:09:35.141Z,8.52
2023-05-04T20:12:08.731Z,10.20
2023-05-04T20:14:38.822Z,6.22
2023-05-04T20:17:11.260Z,5.68
2023-05-04T20:19:43.572Z,4.38
2023-05-04T20:22:15.711Z,4.63
2023-05-04T20:24:50.062Z,4.80
2023-05-04T20:27:24.231Z,4.70
2023-05-04T20:29:54.445Z,4.45
2023-05-04T20:32:27.980Z,4.82
2023-05-04T20:34:57.496Z,4.40
2023-05-04T20:37:27.554Z,5.20
2023-05-04T20:39:59.189Z,6.15
2023-05-04T20:42:31.553Z,5.10
2023-05-04T20:45:03.598Z,4.43
2023-05-04T20:47:37.382Z,3.85
2023-05-04T20:50:12.265Z,4.63
2023-05-04T20:52:41.755Z,3.40
2023-05-04T20:55:11.691Z,4.25
2023-05-04T20:57:45.528Z,3.97
2023-05-04T21:00:15.682Z,3.22
2023-05-04T21:02:48.845Z,4.13
2023-05-04T21:05:18.473Z,10.15
2023-05-04T21:07:52.948Z,8.43
2023-05-04T21:10:27.315Z,4.60
2023-05-04T21:12:59.252Z,3.83
2023-05-04T21:15:28.647Z,3.55
2023-05-04T21:17:58.401Z,3.35
2023-05-04T21:20:30.039Z,4.15
2023-05-04T21:23:01.672Z,3.85
2023-05-04T21:25:34.181Z,3.28
2023-05-04T21:28:08.006Z,4.05
2023-05-04T21:30:41.101Z,4.57
2023-05-04T21:33:17.274Z,4.03
2023-05-04T21:35:54.838Z,4.20
2023-05-04T21:38:25.214Z,4.38
2023-05-04T21:40:54.566Z,5.32
2023-05-04T21:43:27.675Z,5.00
2023-05-04T21:45:57.347Z,4.43
2023-05-04T21:48:28.726Z,5.00
2023-05-04T21:50:58.045Z,4.63
2023-05-04T21:53:36.425Z,4.30
2023-05-04T21:56:13.106Z,4.13
2023-05-04T21:58:47.394Z,4.07
2023-05-04T22:01:20.537Z,4.30
2023-05-04T22:03:50.216Z,3.90
2023-05-04T22:06:22.094Z,3.10
2023-05-04T22:08:53.968Z,3.80
2023-05-04T22:11:25.115Z,2.97
2023-05-04T22:13:56.964Z,2.90
2023-05-04T22:16:28.783Z,2.78
2023-05-04T22:19:01.185Z,2.50
2023-05-04T22:21:35.140Z,2.38
2023-05-04T22:24:05.144Z,2.40
2023-05-04T22:26:37.700Z,2.50
2023-05-04T22:31:42.080Z,2.30
2023-05-04T22:34:16.320Z,2.03
2023-05-04T22:36:53.256Z,2.25
2023-05-04T22:39:23.029Z,1.90
2023-05-04T22:41:55.308Z,2.28
2023-05-04T22:44:24.742Z,2.22
2023-05-04T22:46:57.427Z,1.90
2023-05-04T22:51:58.474Z,2.47
2023-05-04T22:54:31.055Z,4.00
2023-05-04T22:57:04.130Z,3.17
2023-05-04T22:59:34.764Z,2.53
2023-05-04T23:02:07.731Z,2.45
2023-05-04T23:04:40.509Z,2.00
2023-05-04T23:07:12.539Z,2.20
2023-05-04T23:09:50.783Z,2.70
2023-05-04T23:12:23.460Z,2.22
2023-05-04T23:14:53.899Z,2.65
2023-05-04T23:17:25.790Z,2.13
2023-05-04T23:19:55.302Z,2.88
2023-05-04T23:22:27.422Z,2.38
2023-05-04T23:24:56.727Z,2.55
2023-05-04T23:27:30.715Z,2.78
2023-05-04T23:30:02.430Z,2.97
2023-05-04T23:35:06.978Z,2.35
2023-05-04T23:37:36.644Z,3.15
2023-05-04T23:40:15.105Z,2.78
2023-05-04T23:42:51.367Z,2.53
2023-05-04T23:45:23.432Z,2.72
2023-05-04T23:47:58.126Z,2.47
2023-05-04T23:50:30.146Z,2.70
2023-05-04T23:53:01.907Z,2.70
2023-05-04T23:55:33.122Z,2.30
2023-05-04T23:58:03.043Z,2.60
